Time;durP1;ratioP1;P1;durP2;ratioP2;P2;SDS_P1;SDS_P2;PMS_P1;PMS_P2;Temp;Humidity;BMP_temperature;BMP_pressure;BME280_temperature;BME280_humidity;BME280_pressure;Samples;Min_cycle;Max_cycle;Signal;HPM_P1;HPM_P2
2023/01/13 00:00:23;;;;;;;0.00;0.00;;;11.10;99.90;;;;;;5010421;28;20576;-66
2023/01/13 00:02:48;;;;;;;0.00;0.00;;;11.10;99.90;;;;;;5010832;28;20630;-66
2023/01/13 00:05:14;;;;;;;0.00;0.00;;;11.10;99.90;;;;;;5013023;28;20253;-66
2023/01/13 00:07:39;;;;;;;0.00;0.00;;;11.20;99.90;;;;;;5013925;28;20221;-66
2023/01/13 00:10:09;;;;;;;0.00;0.00;;;11.10;99.90;;;;;;5014067;28;20193;-66
2023/01/13 00:12:39;;;;;;;0.00;0.00;;;11.10;99.90;;;;;;5013817;28;20675;-66
2023/01/13 00:15:05;;;;;;;0.00;0.00;;;11.10;99.90;;;;;;5014163;28;20186;-66
2023/01/13 00:17:31;;;;;;;0.00;0.00;;;11.10;99.90;;;;;;5013853;28;20548;-66
2023/01/13 00:19:57;;;;;;;0.00;0.00;;;11.10;99.90;;;;;;5013801;28;20210;-66
2023/01/13 00:22:22;;;;;;;0.00;0.00;;;11.10;99.90;;;;;;5013994;28;20187;-66
2023/01/13 00:24:48;;;;;;;0.00;0.00;;;11.10;99.90;;;;;;5014101;28;20190;-66
2023/01/13 00:27:13;;;;;;;0.00;0.00;;;11.10;99.90;;;;;;4995749;28;20722;-67
2023/01/13 00:29:39;;;;;;;0.00;0.00;;;11.10;99.90;;;;;;5013843;28;20185;-67
2023/01/13 00:32:04;;;;;;;0.00;0.00;;;11.10;99.90;;;;;;5013696;28;20286;-66
2023/01/13 00:34:30;;;;;;;0.00;0.00;;;11.10;99.90;;;;;;5013637;28;20182;-67
2023/01/13 00:36:56;;;;;;;0.00;0.00;;;11.00;99.90;;;;;;4996117;28;20194;-66
2023/01/13 00:39:22;;;;;;;0.00;0.00;;;11.00;99.90;;;;;;5003801;28;20178;-67
2023/01/13 00:44:32;;;;;;;0.00;0.00;;;10.90;99.90;;;;;;5013369;28;20609;-67
2023/01/13 00:46:57;;;;;;;0.00;0.00;;;11.00;99.90;;;;;;5013287;28;20218;-67
2023/01/13 00:49:23;;;;;;;0.00;0.00;;;10.90;99.90;;;;;;5013475;28;20677;-67
2023/01/13 00:51:48;;;;;;;0.00;0.00;;;10.90;99.90;;;;;;5004765;28;20210;-67
2023/01/13 00:54:14;;;;;;;0.00;0.00;;;10.90;99.90;;;;;;5013141;28;20223;-66
2023/01/13 00:56:39;;;;;;;0.00;0.00;;;11.00;99.90;;;;;;5013362;28;20187;-66
2023/01/13 00:59:05;;;;;;;0.00;0.00;;;11.00;99.90;;;;;;5013383;28;20545;-67
2023/01/13 01:01:31;;;;;;;0.00;0.00;;;11.00;99.90;;;;;;5013308;28;20266;-64
2023/01/13 01:03:56;;;;;;;0.00;0.00;;;11.00;99.90;;;;;;5013374;28;20190;-64
2023/01/13 01:06:24;;;;;;;0.00;0.00;;;11.00;99.90;;;;;;5012779;28;20214;-64
2023/01/13 01:08:51;;;;;;;0.00;0.00;;;11.00;99.90;;;;;;5013002;28;20182;-64
2023/01/13 01:11:28;;;;;;;0.00;0.00;;;11.10;99.90;;;;;;5013089;28;20645;-64
2023/01/13 01:13:56;;;;;;;0.00;0.00;;;11.10;99.90;;;;;;5013235;28;20197;-64
2023/01/13 01:16:24;;;;;;;0.00;0.00;;;11.00;99.90;;;;;;4994544;28;20174;-64
2023/01/13 01:18:51;;;;;;;0.00;0.00;;;11.00;99.90;;;;;;5012660;28;20171;-64
2023/01/13 01:21:17;;;;;;;0.00;0.00;;;10.90;99.90;;;;;;5013038;28;20179;-64
2023/01/13 01:23:43;;;;;;;0.00;0.00;;;10.90;99.90;;;;;;5004305;28;20187;-64
2023/01/13 01:26:13;;;;;;;0.00;0.00;;;10.90;99.90;;;;;;5000858;28;20225;-64
2023/01/13 01:28:39;;;;;;;0.00;0.00;;;10.80;99.90;;;;;;4994837;28;20201;-64
2023/01/13 01:31:11;;;;;;;0.00;0.00;;;10.80;99.90;;;;;;5012576;28;20649;-64
2023/01/13 01:33:36;;;;;;;0.00;0.00;;;10.80;99.90;;;;;;5001145;28;20182;-65
2023/01/13 01:36:03;;;;;;;0.05;0.05;;;10.70;99.90;;;;;;5012300;28;20535;-64
2023/01/13 01:38:28;;;;;;;0.00;0.00;;;10.80;99.90;;;;;;5012244;28;20692;-64
2023/01/13 01:40:54;;;;;;;0.00;0.00;;;10.70;99.90;;;;;;4994936;28;20214;-64
2023/01/13 01:46:06;;;;;;;0.00;0.00;;;10.60;99.90;;;;;;5011862;28;20708;-65
2023/01/13 01:48:39;;;;;;;0.00;0.00;;;10.60;99.90;;;;;;5011879;28;20187;-66
2023/01/13 01:51:09;;;;;;;0.00;0.00;;;10.60;99.90;;;;;;5011297;28;20201;-65
2023/01/13 01:53:35;;;;;;;0.00;0.00;;;10.60;99.90;;;;;;5010332;28;20313;-64
2023/01/13 01:56:02;;;;;;;0.00;0.00;;;10.60;99.90;;;;;;5012420;28;20290;-65
2023/01/13 01:58:38;;;;;;;0.00;0.00;;;10.50;99.90;;;;;;4978217;28;20191;-65
2023/01/13 02:01:03;;;;;;;0.00;0.00;;;10.50;99.90;;;;;;5012516;28;20175;-65
2023/01/13 02:03:29;;;;;;;0.00;0.00;;;10.50;99.90;;;;;;5012294;28;20190;-65
2023/01/13 02:05:55;;;;;;;0.00;0.00;;;10.50;99.90;;;;;;5012086;28;20219;-65
2023/01/13 02:08:21;;;;;;;0.00;0.00;;;10.50;99.90;;;;;;4994690;28;20261;-65
2023/01/13 02:10:52;;;;;;;0.00;0.00;;;10.50;99.90;;;;;;5012236;28;20537;-65
2023/01/13 02:13:18;;;;;;;0.00;0.00;;;10.50;99.90;;;;;;5012427;28;20656;-65
2023/01/13 02:16:06;;;;;;;0.00;0.00;;;10.50;99.90;;;;;;5012359;28;20167;-65
2023/01/13 02:18:50;;;;;;;0.00;0.00;;;10.50;99.90;;;;;;5003415;28;20191;-65
2023/01/13 02:21:47;;;;;;;0.00;0.00;;;10.50;99.90;;;;;;4992673;28;20685;-65
2023/01/13 02:24:53;;;;;;;0.00;0.00;;;10.40;99.90;;;;;;4999020;28;20665;-65
2023/01/13 02:27:30;;;;;;;0.00;0.00;;;10.40;99.90;;;;;;5011686;28;20253;-65
2023/01/13 02:33:02;;;;;;;0.00;0.00;;;10.40;99.90;;;;;;5011911;28;20182;-65
2023/01/13 02:35:28;;;;;;;0.00;0.00;;;10.50;99.90;;;;;;5012131;28;20202;-65
2023/01/13 02:37:55;;;;;;;0.00;0.00;;;10.50;99.90;;;;;;5011590;28;20238;-65
2023/01/13 02:40:26;;;;;;;0.00;0.00;;;10.50;99.90;;;;;;5011717;28;20236;-65
2023/01/13 02:46:02;;;;;;;0.00;0.00;;;10.50;99.90;;;;;;5012039;28;20577;-65
2023/01/13 02:48:29;;;;;;;0.00;0.00;;;10.50;99.90;;;;;;5005938;28;20207;-64
2023/01/13 02:51:10;;;;;;;0.00;0.00;;;10.50;99.90;;;;;;5011208;28;20249;-64
2023/01/13 02:53:42;;;;;;;0.10;0.10;;;10.50;99.90;;;;;;4993497;28;20230;-65
2023/01/13 02:56:10;;;;;;;0.00;0.00;;;10.50;99.90;;;;;;5011549;28;20199;-65
2023/01/13 02:58:39;;;;;;;0.00;0.00;;;10.40;99.90;;;;;;5002977;28;20587;-64
2023/01/13 03:01:05;;;;;;;0.00;0.00;;;10.40;99.90;;;;;;5011430;28;20182;-64
2023/01/13 03:03:31;;;;;;;0.00;0.00;;;10.40;99.90;;;;;;5011354;28;20179;-65
2023/01/13 03:06:12;;;;;;;0.00;0.00;;;10.40;99.90;;;;;;5011768;28;20218;-64
2023/01/13 03:08:46;;;;;;;0.00;0.00;;;10.40;99.90;;;;;;5011610;28;20174;-64
2023/01/13 03:11:13;;;;;;;0.00;0.00;;;10.40;99.90;;;;;;5011580;28;20186;-65
2023/01/13 03:13:44;;;;;;;0.00;0.00;;;10.40;99.90;;;;;;5011738;28;20197;-64
2023/01/13 03:16:17;;;;;;;0.00;0.00;;;10.40;99.90;;;;;;5011841;28;20186;-64
2023/01/13 03:19:05;;;;;;;0.00;0.00;;;10.40;99.90;;;;;;5011553;28;20264;-64
2023/01/13 03:21:39;;;;;;;0.00;0.00;;;10.40;99.90;;;;;;5011627;28;20175;-64
2023/01/13 03:24:12;;;;;;;0.00;0.00;;;10.40;99.90;;;;;;5011211;28;20568;-64
2023/01/13 03:26:52;;;;;;;0.00;0.00;;;10.40;99.90;;;;;;5011232;28;20672;-64
2023/01/13 03:29:25;;;;;;;0.00;0.00;;;10.40;99.90;;;;;;5011159;28;20234;-65
2023/01/13 03:32:03;;;;;;;0.00;0.00;;;10.40;99.90;;;;;;5011231;28;20187;-64
2023/01/13 03:34:34;;;;;;;0.00;0.00;;;10.40;99.90;;;;;;5011455;28;20202;-65
2023/01/13 03:37:03;;;;;;;0.00;0.00;;;10.40;99.90;;;;;;5011295;28;20182;-65
2023/01/13 03:39:33;;;;;;;0.00;0.00;;;10.40;99.90;;;;;;5012632;28;20642;-65
2023/01/13 03:42:06;;;;;;;0.00;0.00;;;10.40;99.90;;;;;;5015177;28;20262;-65
2023/01/13 03:44:46;;;;;;;0.00;0.00;;;10.40;99.90;;;;;;5014648;28;20183;-65
2023/01/13 03:47:25;;;;;;;0.20;0.20;;;10.40;99.90;;;;;;5015004;28;20269;-65
2023/01/13 03:49:59;;;;;;;0.00;0.00;;;10.40;99.90;;;;;;5015074;28;20178;-65
2023/01/13 03:52:29;;;;;;;0.00;0.00;;;10.50;99.90;;;;;;5014524;28;20190;-64
2023/01/13 03:55:12;;;;;;;0.00;0.00;;;10.50;99.90;;;;;;5014736;28;20805;-64
2023/01/13 03:57:45;;;;;;;0.00;0.00;;;10.50;99.90;;;;;;5012458;28;20189;-64
2023/01/13 04:00:13;;;;;;;0.00;0.00;;;10.60;99.90;;;;;;5005452;28;20190;-65
2023/01/13 04:02:56;;;;;;;0.00;0.00;;;10.70;99.90;;;;;;5013983;28;20536;-64
2023/01/13 04:05:22;;;;;;;0.00;0.00;;;10.70;99.90;;;;;;5013377;28;20191;-64
2023/01/13 04:08:12;;;;;;;0.00;0.00;;;10.70;99.90;;;;;;5014381;28;20186;-65
2023/01/13 04:10:44;;;;;;;0.00;0.00;;;10.70;99.90;;;;;;5005598;28;20182;-64
2023/01/13 04:13:15;;;;;;;0.00;0.00;;;10.80;99.90;;;;;;5014223;28;20183;-64
2023/01/13 04:15:43;;;;;;;0.00;0.00;;;10.80;99.90;;;;;;5014487;28;20194;-64
2023/01/13 04:18:13;;;;;;;0.00;0.00;;;10.90;99.90;;;;;;5014365;28;20282;-64
2023/01/13 04:20:41;;;;;;;0.00;0.00;;;10.90;99.90;;;;;;5014154;28;20249;-64
2023/01/13 04:23:08;;;;;;;0.00;0.00;;;10.90;99.90;;;;;;5014280;28;20171;-64
2023/01/13 04:25:35;;;;;;;0.00;0.00;;;10.90;99.90;;;;;;5014165;28;20187;-64
2023/01/13 04:28:01;;;;;;;0.00;0.00;;;10.90;99.90;;;;;;5013775;28;20708;-64
2023/01/13 04:30:26;;;;;;;0.00;0.00;;;10.90;99.90;;;;;;5014244;28;20187;-64
2023/01/13 04:32:52;;;;;;;0.00;0.00;;;10.90;99.90;;;;;;4994435;28;20650;-66
2023/01/13 04:35:17;;;;;;;0.00;0.00;;;10.90;99.90;;;;;;4997850;28;20184;-65
2023/01/13 04:37:43;;;;;;;0.00;0.00;;;11.00;99.90;;;;;;5009708;28;20182;-65
2023/01/13 04:40:09;;;;;;;0.00;0.00;;;11.00;99.90;;;;;;4979493;28;20175;-64
2023/01/13 04:42:34;;;;;;;0.00;0.00;;;11.00;99.90;;;;;;4995949;28;20201;-64
2023/01/13 04:45:00;;;;;;;0.00;0.00;;;10.90;99.90;;;;;;5013724;28;20187;-65
2023/01/13 04:47:25;;;;;;;0.00;0.00;;;10.90;99.90;;;;;;5013496;28;20226;-65
2023/01/13 04:49:51;;;;;;;0.00;0.00;;;11.00;99.90;;;;;;5010456;28;20187;-69
2023/01/13 04:52:16;;;;;;;0.00;0.00;;;11.00;99.90;;;;;;4987399;28;20615;-67
2023/01/13 04:54:42;;;;;;;0.00;0.00;;;11.00;99.90;;;;;;5013451;28;20257;-71
2023/01/13 04:57:07;;;;;;;0.00;0.00;;;11.00;99.90;;;;;;5008645;28;20291;-68
2023/01/13 04:59:33;;;;;;;0.00;0.00;;;11.00;99.90;;;;;;5013468;28;20186;-69
2023/01/13 05:01:58;;;;;;;0.00;0.00;;;11.00;99.90;;;;;;5013348;28;20190;-66
2023/01/13 05:04:24;;;;;;;0.00;0.00;;;11.00;99.90;;;;;;4996069;28;20187;-67
2023/01/13 05:06:49;;;;;;;0.00;0.00;;;11.00;99.90;;;;;;5013107;28;20230;-66
2023/01/13 05:09:15;;;;;;;0.00;0.00;;;11.00;99.90;;;;;;5013216;28;20214;-67
2023/01/13 05:17:30;;;;;;;0.90;0.20;;;11.00;99.90;;;;;;5005607;28;20186;-64
2023/01/13 05:19:55;;;;;;;0.00;0.00;;;11.00;99.90;;;;;;5012796;28;20185;-62
2023/01/13 05:25:26;;;;;;;0.00;0.00;;;11.00;99.90;;;;;;5013747;28;20311;-64
2023/01/13 05:27:54;;;;;;;0.00;0.00;;;11.00;99.90;;;;;;5013388;28;20179;-64
2023/01/13 05:30:22;;;;;;;0.00;0.00;;;11.00;99.90;;;;;;5013093;28;20193;-68
2023/01/13 05:32:48;;;;;;;0.10;0.10;;;11.10;99.90;;;;;;5012394;28;20431;-65
2023/01/13 05:35:14;;;;;;;0.00;0.00;;;11.20;99.90;;;;;;5012772;28;20190;-66
2023/01/13 05:37:41;;;;;;;0.00;0.00;;;11.60;99.90;;;;;;5010852;28;20523;-66
2023/01/13 05:43:23;;;;;;;0.00;0.00;;;11.40;99.90;;;;;;5011106;28;20261;-66
2023/01/13 05:45:59;;;;;;;0.00;0.00;;;11.20;99.90;;;;;;5006503;28;20613;-66
2023/01/13 05:48:27;;;;;;;0.00;0.00;;;11.10;99.90;;;;;;5012308;28;20244;-67
2023/01/13 05:50:53;;;;;;;0.00;0.00;;;11.10;99.90;;;;;;5012827;28;20175;-67
2023/01/13 05:53:20;;;;;;;0.20;0.20;;;11.10;99.90;;;;;;5012660;28;20269;-67
2023/01/13 05:55:46;;;;;;;0.00;0.00;;;11.00;99.90;;;;;;5012890;28;20210;-68
2023/01/13 05:58:14;;;;;;;0.00;0.00;;;11.00;99.90;;;;;;5011565;28;20202;-67
2023/01/13 06:00:40;;;;;;;0.00;0.00;;;11.00;99.90;;;;;;5012559;28;20587;-67
2023/01/13 06:03:05;;;;;;;0.00;0.00;;;11.00;99.90;;;;;;5011772;28;20174;-67
2023/01/13 06:05:31;;;;;;;0.00;0.00;;;10.90;99.90;;;;;;5011060;28;20187;-67
2023/01/13 06:07:58;;;;;;;0.00;0.00;;;11.00;99.90;;;;;;5012601;28;20183;-68
2023/01/13 06:10:24;;;;;;;0.00;0.00;;;11.00;99.90;;;;;;5012357;28;20182;-67
2023/01/13 06:12:50;;;;;;;0.00;0.00;;;11.00;99.90;;;;;;4995082;28;20585;-67
2023/01/13 06:15:16;;;;;;;0.00;0.00;;;10.90;99.90;;;;;;5012525;28;20181;-68
2023/01/13 06:17:41;;;;;;;0.00;0.00;;;10.90;99.90;;;;;;5012291;28;20175;-67
2023/01/13 06:20:08;;;;;;;0.00;0.00;;;11.00;99.90;;;;;;5012447;28;20175;-67
2023/01/13 06:22:38;;;;;;;0.00;0.00;;;11.00;99.90;;;;;;5012184;28;20186;-68
2023/01/13 06:25:10;;;;;;;0.00;0.00;;;11.00;99.90;;;;;;5012130;28;20179;-68
2023/01/13 06:27:36;;;;;;;0.00;0.00;;;11.00;99.90;;;;;;5011827;28;20309;-67
2023/01/13 06:30:02;;;;;;;0.00;0.00;;;11.00;99.90;;;;;;5011825;28;20213;-68
2023/01/13 06:32:33;;;;;;;0.00;0.00;;;11.00;99.90;;;;;;5011999;28;20201;-68
2023/01/13 06:35:05;;;;;;;0.00;0.00;;;11.00;99.90;;;;;;5012210;28;20182;-68
2023/01/13 06:37:32;;;;;;;0.00;0.00;;;10.90;99.90;;;;;;5012383;28;20175;-68
2023/01/13 06:40:00;;;;;;;0.00;0.00;;;10.90;99.90;;;;;;5012371;28;20179;-68
2023/01/13 06:45:13;;;;;;;0.00;0.00;;;10.90;99.90;;;;;;4992523;28;20676;-68
2023/01/13 06:47:38;;;;;;;0.00;0.00;;;11.00;99.90;;;;;;4992419;28;20207;-68
2023/01/13 06:50:04;;;;;;;0.00;0.00;;;10.90;99.90;;;;;;4992618;28;20184;-68
2023/01/13 06:52:30;;;;;;;0.00;0.00;;;11.00;99.90;;;;;;4992428;28;20622;-68
2023/01/13 06:54:56;;;;;;;0.00;0.00;;;11.00;99.90;;;;;;4992228;28;20230;-68
2023/01/13 06:57:23;;;;;;;0.00;0.00;;;11.00;99.90;;;;;;4992264;28;20202;-68
2023/01/13 06:59:48;;;;;;;0.00;0.00;;;11.00;99.90;;;;;;4992562;28;20183;-68
2023/01/13 07:02:14;;;;;;;0.00;0.00;;;11.00;99.90;;;;;;4992641;28;20183;-68
2023/01/13 07:04:39;;;;;;;0.00;0.00;;;11.00;99.90;;;;;;4997300;28;20430;-68
2023/01/13 07:07:06;;;;;;;0.00;0.00;;;11.00;99.90;;;;;;4995773;28;20254;-68
2023/01/13 07:09:32;;;;;;;0.00;0.00;;;11.00;99.90;;;;;;4998984;28;20175;-68
2023/01/13 07:11:58;;;;;;;0.00;0.00;;;11.00;99.90;;;;;;5012034;28;20186;-68
2023/01/13 07:17:07;;;;;;;0.00;0.00;;;11.00;99.90;;;;;;5016025;28;20201;-68
2023/01/13 07:19:33;;;;;;;0.00;0.00;;;11.00;99.90;;;;;;5016053;28;20646;-68
2023/01/13 07:21:58;;;;;;;0.00;0.00;;;11.00;99.90;;;;;;5015900;28;20179;-67
2023/01/13 07:24:24;;;;;;;0.00;0.00;;;11.10;99.90;;;;;;5015560;28;20198;-67
2023/01/13 07:26:51;;;;;;;0.00;0.00;;;11.10;99.90;;;;;;5015667;28;20268;-68
2023/01/13 07:29:17;;;;;;;0.00;0.00;;;11.10;99.90;;;;;;5015688;28;20257;-67
2023/01/13 07:31:42;;;;;;;0.00;0.00;;;11.10;99.90;;;;;;5015429;28;20262;-68
2023/01/13 07:34:08;;;;;;;0.00;0.00;;;11.10;99.90;;;;;;5015439;28;20182;-68
2023/01/13 07:36:34;;;;;;;0.00;0.00;;;11.10;99.90;;;;;;5015508;28;20179;-68
2023/01/13 07:38:59;;;;;;;0.00;0.00;;;11.10;99.90;;;;;;5015508;28;20218;-67
2023/01/13 07:44:09;;;;;;;0.00;0.00;;;11.00;99.90;;;;;;5015434;28;20190;-67
2023/01/13 07:46:36;;;;;;;0.00;0.00;;;11.00;99.90;;;;;;5015173;28;20194;-67
2023/01/13 07:49:02;;;;;;;0.00;0.00;;;10.90;99.90;;;;;;5015240;28;20186;-68
2023/01/13 07:51:27;;;;;;;0.00;0.00;;;10.80;99.90;;;;;;5015344;28;20179;-67
2023/01/13 07:53:53;;;;;;;0.00;0.00;;;10.60;99.90;;;;;;5014762;28;20225;-67
2023/01/13 07:56:19;;;;;;;0.00;0.00;;;10.40;99.90;;;;;;5015178;28;20178;-68
2023/01/13 07:58:49;;;;;;;0.10;0.10;;;10.10;99.90;;;;;;5015129;28;20202;-67
2023/01/13 08:01:15;;;;;;;0.00;0.00;;;9.90;99.90;;;;;;5015231;28;20261;-68
2023/01/13 08:03:41;;;;;;;0.00;0.00;;;9.70;99.90;;;;;;5014944;28;20186;-68
2023/01/13 08:06:08;;;;;;;0.00;0.00;;;9.40;99.90;;;;;;5014931;28;20203;-68
2023/01/13 08:08:34;;;;;;;0.00;0.00;;;9.30;99.90;;;;;;5014912;28;20186;-68
2023/01/13 08:11:04;;;;;;;0.00;0.00;;;9.00;99.90;;;;;;5006625;28;20662;-68
2023/01/13 08:13:29;;;;;;;0.00;0.00;;;8.90;99.90;;;;;;5014835;28;20185;-68
2023/01/13 08:16:07;;;;;;;0.00;0.00;;;8.80;99.90;;;;;;5014854;28;20175;-68
2023/01/13 08:18:33;;;;;;;0.00;0.00;;;8.70;99.90;;;;;;5014673;28;20175;-68
2023/01/13 08:21:05;;;;;;;0.00;0.00;;;8.60;99.90;;;;;;5014623;28;20202;-68
2023/01/13 08:23:30;;;;;;;0.00;0.00;;;8.50;99.90;;;;;;4997119;28;20226;-68
2023/01/13 08:26:01;;;;;;;0.00;0.00;;;8.40;99.90;;;;;;5014462;28;20734;-68
2023/01/13 08:28:27;;;;;;;0.00;0.00;;;8.40;99.90;;;;;;5014734;28;20187;-68
2023/01/13 08:30:53;;;;;;;0.00;0.00;;;8.40;99.90;;;;;;4996875;28;20653;-67
2023/01/13 08:33:19;;;;;;;0.00;0.00;;;8.30;99.90;;;;;;5014638;28;20183;-68
2023/01/13 08:35:45;;;;;;;0.00;0.00;;;8.30;99.90;;;;;;5014422;28;20696;-68
2023/01/13 08:38:11;;;;;;;0.00;0.00;;;8.30;99.90;;;;;;5014424;28;20649;-69
2023/01/13 08:40:39;;;;;;;0.00;0.00;;;8.30;99.90;;;;;;5014356;28;20202;-68
2023/01/13 08:43:04;;;;;;;0.00;0.00;;;8.30;99.90;;;;;;5014329;28;20179;-69
2023/01/13 08:45:30;;;;;;;0.00;0.00;;;8.30;99.90;;;;;;5014085;28;20804;-68
2023/01/13 08:47:56;;;;;;;0.00;0.00;;;8.30;99.90;;;;;;5014161;28;20187;-68
2023/01/13 08:50:21;;;;;;;0.00;0.00;;;8.30;99.90;;;;;;5014034;28;20233;-68
2023/01/13 08:52:47;;;;;;;0.00;0.00;;;8.30;99.90;;;;;;5014085;28;20187;-68
2023/01/13 08:55:12;;;;;;;0.00;0.00;;;8.30;99.90;;;;;;5013854;28;20297;-68
2023/01/13 08:57:38;;;;;;;0.00;0.00;;;8.30;99.90;;;;;;5013995;28;20650;-68
2023/01/13 09:00:06;;;;;;;0.00;0.00;;;8.30;99.90;;;;;;5013903;28;20638;-68
2023/01/13 09:02:32;;;;;;;0.00;0.00;;;8.30;99.90;;;;;;5013796;28;20253;-67
2023/01/13 09:04:59;;;;;;;0.00;0.00;;;8.30;99.90;;;;;;4996256;28;20214;-68
2023/01/13 09:07:24;;;;;;;0.00;0.00;;;8.40;99.90;;;;;;5013732;28;20218;-68
2023/01/13 09:09:50;;;;;;;0.00;0.00;;;8.40;99.90;;;;;;5013768;28;20178;-68
2023/01/13 09:15:02;;;;;;;0.00;0.00;;;8.50;99.90;;;;;;5011849;28;20194;-68
2023/01/13 09:17:28;;;;;;;0.00;0.00;;;8.50;99.90;;;;;;5006620;28;20262;-68
2023/01/13 09:19:53;;;;;;;0.00;0.00;;;8.50;99.90;;;;;;5012264;28;20226;-68
2023/01/13 09:22:19;;;;;;;0.00;0.00;;;8.50;99.90;;;;;;5018104;28;20289;-68
2023/01/13 09:24:45;;;;;;;0.00;0.00;;;8.50;99.90;;;;;;5010627;28;20661;-68
2023/01/13 09:27:12;;;;;;;0.00;0.00;;;8.60;99.90;;;;;;4993778;28;20218;-67
2023/01/13 09:29:37;;;;;;;0.00;0.00;;;8.60;99.90;;;;;;4993803;28;20254;-67
2023/01/13 09:32:04;;;;;;;0.00;0.00;;;8.60;99.90;;;;;;4993556;28;20282;-67
2023/01/13 09:37:13;;;;;;;0.00;0.00;;;8.60;99.90;;;;;;4993466;28;20562;-67
2023/01/13 09:39:39;;;;;;;0.10;0.10;;;8.60;99.90;;;;;;4993520;28;20175;-67
2023/01/13 09:45:09;;;;;;;0.00;0.00;;;8.70;99.90;;;;;;5011587;28;20193;-67
2023/01/13 09:47:44;;;;;;;0.00;0.00;;;8.70;99.90;;;;;;4995542;28;20568;-67
2023/01/13 09:50:12;;;;;;;0.00;0.00;;;8.70;99.90;;;;;;5013098;28;20761;-67
2023/01/13 09:52:38;;;;;;;0.00;0.00;;;8.70;99.90;;;;;;5012990;28;20258;-68
2023/01/13 09:55:29;;;;;;;0.00;0.00;;;8.80;99.90;;;;;;5012900;28;20226;-68
2023/01/13 09:57:54;;;;;;;0.00;0.00;;;8.80;99.90;;;;;;5012933;28;20638;-67
2023/01/13 10:00:27;;;;;;;0.00;0.00;;;8.80;99.90;;;;;;5012835;28;20185;-67
2023/01/13 10:03:18;;;;;;;0.00;0.00;;;8.80;99.90;;;;;;5012880;28;20276;-68
2023/01/13 10:05:55;;;;;;;0.00;0.00;;;8.90;99.90;;;;;;5012757;28;20182;-67
2023/01/13 10:08:33;;;;;;;0.00;0.00;;;8.90;99.90;;;;;;5012730;28;20210;-67
2023/01/13 10:14:01;;;;;;;0.00;0.00;;;8.90;99.90;;;;;;5001342;28;20662;-67
2023/01/13 10:16:52;;;;;;;0.00;0.00;;;9.00;99.90;;;;;;5012718;28;20229;-67
2023/01/13 10:19:23;;;;;;;0.00;0.00;;;9.10;99.90;;;;;;5012669;28;20245;-68
2023/01/13 10:22:07;;;;;;;0.10;0.10;;;9.10;99.90;;;;;;5012458;28;20711;-68
2023/01/13 10:24:51;;;;;;;0.00;0.00;;;9.20;99.90;;;;;;5011396;28;20179;-67
2023/01/13 10:27:35;;;;;;;0.00;0.00;;;9.40;99.90;;;;;;4992889;28;20266;-68
2023/01/13 10:30:21;;;;;;;0.00;0.00;;;9.60;99.90;;;;;;4992821;28;20198;-68
2023/01/13 10:33:11;;;;;;;0.10;0.10;;;9.80;99.90;;;;;;4992695;28;20693;-67
2023/01/13 10:35:52;;;;;;;0.00;0.00;;;9.80;99.90;;;;;;4981637;28;20679;-68
2023/01/13 10:38:58;;;;;;;0.00;0.00;;;9.80;99.90;;;;;;4992825;28;20183;-67
2023/01/13 10:41:26;;;;;;;0.00;0.00;;;9.70;99.90;;;;;;4949136;28;20273;-68
2023/01/13 10:43:51;;;;;;;0.00;0.00;;;9.60;99.90;;;;;;5001630;28;20163;-67
2023/01/13 10:46:18;;;;;;;0.00;0.00;;;9.40;99.90;;;;;;5012209;28;20209;-67
2023/01/13 10:48:52;;;;;;;0.00;0.00;;;9.40;99.90;;;;;;5012097;28;20661;-67
2023/01/13 10:51:37;;;;;;;0.00;0.00;;;9.30;99.90;;;;;;5012184;28;20531;-67
2023/01/13 10:54:23;;;;;;;0.00;0.00;;;9.30;99.90;;;;;;5011944;28;20226;-67
2023/01/13 10:57:09;;;;;;;0.00;0.00;;;9.20;99.90;;;;;;5012022;28;20681;-67
2023/01/13 10:59:35;;;;;;;0.10;0.10;;;9.20;99.90;;;;;;5011743;28;20209;-68
2023/01/13 11:02:13;;;;;;;0.00;0.00;;;9.10;99.90;;;;;;5012020;28;20657;-68
2023/01/13 11:05:03;;;;;;;0.00;0.00;;;9.10;99.90;;;;;;5011883;28;20181;-68
2023/01/13 11:07:33;;;;;;;0.00;0.00;;;9.10;99.90;;;;;;4994585;28;20317;-68
2023/01/13 11:10:09;;;;;;;0.00;0.00;;;9.00;99.90;;;;;;5011919;28;20181;-68
2023/01/13 11:13:00;;;;;;;0.00;0.00;;;9.10;99.90;;;;;;5012008;28;20667;-68
2023/01/13 11:15:37;;;;;;;0.00;0.00;;;9.10;99.90;;;;;;4961822;28;20535;-67
2023/01/13 11:18:13;;;;;;;0.00;0.00;;;9.10;99.90;;;;;;5011740;28;20178;-68
2023/01/13 11:20:42;;;;;;;0.00;0.00;;;9.20;99.90;;;;;;5011558;28;20654;-68
2023/01/13 11:23:25;;;;;;;0.00;0.00;;;9.30;99.90;;;;;;5011763;28;20183;-68
2023/01/13 11:25:56;;;;;;;0.00;0.00;;;9.30;99.90;;;;;;5011674;28;20667;-68
2023/01/13 11:28:42;;;;;;;0.00;0.00;;;9.30;99.90;;;;;;5011668;28;20186;-67
2023/01/13 11:31:21;;;;;;;0.00;0.00;;;9.30;99.90;;;;;;5011829;28;20175;-68
2023/01/13 11:34:10;;;;;;;0.00;0.00;;;9.40;99.90;;;;;;5011753;28;20179;-68
2023/01/13 11:36:56;;;;;;;0.00;0.00;;;9.50;99.90;;;;;;5011652;28;20236;-68
2023/01/13 11:39:52;;;;;;;0.00;0.00;;;9.70;99.90;;;;;;5011630;28;20209;-67
2023/01/13 11:42:35;;;;;;;0.00;0.00;;;9.80;99.90;;;;;;5011885;28;20175;-68
2023/01/13 11:45:06;;;;;;;0.00;0.00;;;9.80;99.90;;;;;;5011498;28;20179;-68
2023/01/13 11:47:33;;;;;;;0.00;0.00;;;9.70;99.90;;;;;;5011518;28;20230;-68
2023/01/13 11:50:00;;;;;;;0.38;0.38;;;9.70;99.90;;;;;;5011635;28;20232;-68
2023/01/13 11:52:44;;;;;;;0.00;0.00;;;9.60;99.90;;;;;;5011601;28;20186;-68
2023/01/13 11:55:30;;;;;;;0.00;0.00;;;9.50;99.90;;;;;;5011527;28;20246;-68
2023/01/13 11:58:22;;;;;;;0.00;0.00;;;9.40;99.90;;;;;;5011668;28;20363;-68
2023/01/13 12:01:36;;;;;;;0.00;0.00;;;9.30;99.90;;;;;;5013130;28;20174;-68
2023/01/13 12:04:26;;;;;;;0.00;0.00;;;9.30;99.90;;;;;;4993704;28;20195;-68
2023/01/13 12:07:37;;;;;;;0.30;0.30;;;9.30;99.90;;;;;;5014781;28;20256;-68
2023/01/13 12:10:06;;;;;;;0.00;0.00;;;9.30;99.90;;;;;;5014812;28;20187;-68
2023/01/13 12:13:05;;;;;;;0.00;0.00;;;9.30;99.90;;;;;;5014874;28;20186;-68
2023/01/13 12:15:31;;;;;;;0.00;0.00;;;9.20;99.90;;;;;;5014870;28;20205;-68
2023/01/13 12:18:39;;;;;;;0.17;0.17;;;9.20;99.90;;;;;;5014788;28;20174;-67
2023/01/13 12:21:16;;;;;;;0.00;0.00;;;9.20;99.90;;;;;;5014485;28;20190;-68
2023/01/13 12:24:04;;;;;;;0.00;0.00;;;9.20;99.90;;;;;;5014396;28;20178;-68
2023/01/13 12:26:36;;;;;;;0.00;0.00;;;9.10;99.90;;;;;;5014534;28;20230;-68
2023/01/13 12:29:27;;;;;;;0.00;0.00;;;8.90;99.90;;;;;;5014501;28;20202;-68
2023/01/13 12:31:53;;;;;;;0.00;0.00;;;8.70;99.90;;;;;;5003819;28;20241;-67
2023/01/13 12:34:32;;;;;;;0.32;0.32;;;8.50;99.90;;;;;;5014172;28;20183;-68
2023/01/13 12:37:16;;;;;;;0.00;0.00;;;8.50;99.90;;;;;;5014521;28;20519;-68
2023/01/13 12:39:48;;;;;;;0.00;0.00;;;8.50;99.90;;;;;;5014139;28;20274;-68
2023/01/13 12:45:33;;;;;;;0.00;0.00;;;8.50;99.90;;;;;;4994766;28;20207;-68
2023/01/13 12:47:59;;;;;;;0.00;0.00;;;8.60;99.90;;;;;;4994694;28;20682;-68
2023/01/13 12:50:24;;;;;;;0.00;0.00;;;8.60;99.90;;;;;;4994542;28;20182;-68
2023/01/13 12:52:53;;;;;;;0.00;0.00;;;8.70;99.90;;;;;;4976907;28;20175;-68
2023/01/13 12:55:25;;;;;;;0.00;0.00;;;8.70;99.90;;;;;;4994603;28;20206;-69
2023/01/13 12:58:07;;;;;;;0.00;0.00;;;8.70;99.90;;;;;;4994651;28;20187;-68
2023/01/13 13:00:38;;;;;;;0.00;0.00;;;8.70;99.90;;;;;;4994352;28;20180;-68
2023/01/13 13:03:09;;;;;;;0.00;0.00;;;8.80;99.90;;;;;;4976951;28;20497;-69
2023/01/13 13:05:56;;;;;;;0.00;0.00;;;8.80;99.90;;;;;;4994322;28;20207;-68
2023/01/13 13:08:40;;;;;;;0.00;0.00;;;8.80;99.90;;;;;;4994290;28;20191;-67
2023/01/13 13:14:12;;;;;;;0.00;0.00;;;8.70;99.90;;;;;;4994528;28;20234;-68
2023/01/13 13:16:50;;;;;;;0.00;0.00;;;8.70;99.90;;;;;;4994048;28;20635;-68
2023/01/13 13:19:21;;;;;;;0.00;0.00;;;8.70;99.90;;;;;;4994181;28;20187;-68
2023/01/13 13:22:05;;;;;;;0.00;0.00;;;8.60;99.90;;;;;;5002025;28;20171;-68
2023/01/13 13:24:30;;;;;;;0.00;0.00;;;8.70;99.90;;;;;;4993915;28;20186;-68
2023/01/13 13:26:56;;;;;;;0.00;0.00;;;8.70;99.90;;;;;;5009432;28;20603;-68
2023/01/13 13:29:48;;;;;;;0.00;0.00;;;8.70;99.90;;;;;;4994236;28;20179;-67
2023/01/13 13:32:26;;;;;;;0.00;0.00;;;8.70;99.90;;;;;;4993926;28;20175;-68
2023/01/13 13:35:12;;;;;;;0.00;0.00;;;8.60;99.90;;;;;;5011999;28;20186;-68
2023/01/13 13:46:47;;;;;;;0.70;0.35;;;8.30;99.90;;;;;;5013111;28;20217;-68
2023/01/13 13:49:18;;;;;;;0.00;0.00;;;8.30;99.90;;;;;;5013186;28;20653;-68
2023/01/13 13:52:00;;;;;;;0.05;0.05;;;8.20;99.90;;;;;;5013182;28;20270;-68
2023/01/13 13:54:26;;;;;;;0.00;0.00;;;8.20;99.90;;;;;;5012828;28;20627;-69
2023/01/13 13:56:52;;;;;;;0.00;0.00;;;8.10;99.90;;;;;;5013017;28;20195;-68
2023/01/13 13:59:29;;;;;;;0.00;0.00;;;8.10;99.90;;;;;;5012937;28;20218;-68
2023/01/13 14:02:00;;;;;;;0.00;0.00;;;8.10;99.90;;;;;;5013073;28;20191;-68
2023/01/13 14:04:31;;;;;;;0.00;0.00;;;8.10;99.90;;;;;;5012850;28;20195;-68
2023/01/13 14:07:19;;;;;;;0.00;0.00;;;8.20;99.90;;;;;;5012701;28;20210;-69
2023/01/13 14:09:48;;;;;;;0.00;0.00;;;8.30;99.90;;;;;;5012786;28;20261;-68